Mobile, AL (36608)

6:50 PM CDT on August 20, 2014 (GMT -0500)
West Mobile | Change Station
CLOSE
Current Station
Personal Weather Station
Location: Mobile, AL
Elevation: 207 ft
Nearby Weather Stations
Active Advisory: Special Statement Active Notice: Public Information Statement

Elev 207 ft 30.66 °N, 88.19 °W | Updated 14 minutes ago

Scattered Clouds
Scattered Clouds
86.6 °F
Feels Like 98 °F
N
4.0
Wind Variable Wind from NNW
Gusts 8.0 mph

Today
High -- | Low -- °F
--% Chance of Precip.
Yesterday
High -- | Low -- °F
Precip. -- in
6:22 AM 7:29 PM
Waning Crescent, 18% visible
Pressure 30.05 in
Visibility 10.0 miles
Clouds Few 3000 ft
Scattered Clouds 25000 ft
Heat Index 98 °F
Dew Point 77 °F
Humidity 73%
Rainfall 0.00 in
Snow Depth Not available.
UV 0.0 out of 12
Pollen 7.50 out of 12
Ozone Good
Flu Activity Not available.
METAR KMOB 202256Z 18007KT 10SM FEW030CB SCT250 31/24 A3006 RMK AO2 SLP174 CB N AND E MOV E T03110244

More Conditions Fewer Conditions

Pressure 30.05 in
Visibility 10.0 miles
Clouds Few 3000 ft
Scattered Clouds 25000 ft
Heat Index 98 °F
Dew Point 77 °F
Humidity 73%
Rainfall 0.00 in
Snow Depth Not available.
UV 0.0 out of 12
Pollen 7.50 out of 12
Ozone Good
Flu Activity Not available.
METAR KMOB 202256Z 18007KT 10SM FEW030CB SCT250 31/24 A3006 RMK AO2 SLP174 CB N AND E MOV E T03110244

More Conditions Fewer Conditions

10-Day Weather Forecast

Almanac

Astronomy

Aug. 20, 2014 Rise Set
Actual Time 6:22 AM CDT 7:29 PM CDT
Civil Twilight 5:57 AM CDT 7:54 PM CDT
Nautical Twilight 5:27 AM CDT 8:24 PM CDT
Astronomical Twilight 4:56 AM CDT 8:54 PM CDT
Moon 2:09 AM CDT 4:07 PM CDT
Length of Visible Light 13h 57m
Length of Day
13h 07m
Tomorrow will be 1m 41s shorter.
Waning Crescent, 18% of the Moon is Illuminated
Today
Waning Crescent
Aug 25
New
Sep 2
First Quarter
Sep 8
Full
Sep 15
Last Quarter

Today's Extremes

State Highs State Lows

Community

WunderPhotos

Upload Photos

1,745,801 photos uploaded!

Nearby

Air Quality

  Air Quality AQ Index Pollutant
Yesterday Good
OZONE
Current Good
OZONE
Wednesday Good
OZONE
Thursday Good
OZONE

Snow Depth

Station Depth Elevation
No new snow has been reported.

Earthquake Activity

City Distance Mag. Time & Date
No recent earthquake activity has been reported nearby.
Minimum magnitude displayed is 2.5.

Coastal Water Temperatures

Place Temperature
Mobile State Docks, AL 87.1 °F
Coast Guard Sector Mobile, AL 84.9 °F

Nearby Weather Stations